createdAt,value
2023-01-31T00:02:25.993Z,100968.28
2023-01-31T00:05:29.249Z,100970.16
2023-01-31T00:08:31.812Z,100962.66
2023-01-31T00:11:33.779Z,100974.34
2023-01-31T00:14:36.347Z,100979.34
2023-01-31T00:17:39.440Z,100990.00
2023-01-31T00:20:43.169Z,100994.56
2023-01-31T00:23:45.550Z,100994.13
2023-01-31T00:26:49.060Z,100992.28
2023-01-31T00:33:12.559Z,101000.84
2023-01-31T00:36:16.097Z,100999.34
2023-01-31T00:39:18.815Z,101009.56
2023-01-31T00:42:20.888Z,101010.19
2023-01-31T00:45:23.436Z,101017.72
2023-01-31T00:48:26.776Z,101028.97
2023-01-31T00:51:29.037Z,101029.66
2023-01-31T00:54:31.607Z,101039.19
2023-01-31T00:57:32.910Z,101032.75
2023-01-31T01:00:35.781Z,101040.72
2023-01-31T01:03:38.495Z,101052.19
2023-01-31T01:06:42.271Z,101052.47
2023-01-31T01:09:43.859Z,101066.63
2023-01-31T01:12:46.414Z,101072.31
2023-01-31T01:15:49.018Z,101081.06
2023-01-31T01:18:50.876Z,101078.31
2023-01-31T01:21:56.425Z,101069.81
2023-01-31T01:24:58.274Z,101088.22
2023-01-31T01:28:00.816Z,101078.19
2023-01-31T01:31:07.776Z,101085.94
2023-01-31T01:34:12.834Z,101093.44
2023-01-31T01:40:40.428Z,101092.81
2023-01-31T01:43:47.927Z,101093.63
2023-01-31T01:46:50.765Z,101105.75
2023-01-31T01:49:56.983Z,101113.06
2023-01-31T01:53:06.023Z,101112.22
2023-01-31T01:56:11.304Z,101114.56
2023-01-31T01:59:19.447Z,101126.44
2023-01-31T02:02:22.525Z,101130.22
2023-01-31T02:05:29.570Z,101137.66
2023-01-31T02:08:34.846Z,101135.63
2023-01-31T02:11:37.519Z,101133.28
2023-01-31T02:14:39.609Z,101144.16
2023-01-31T02:17:42.271Z,101133.53
2023-01-31T02:21:37.065Z,101146.91
2023-01-31T02:25:20.375Z,101150.88
2023-01-31T02:28:58.886Z,101166.72
2023-01-31T02:32:33.921Z,101162.34
2023-01-31T02:35:52.792Z,101170.38
2023-01-31T02:39:08.003Z,101162.66
2023-01-31T02:42:20.542Z,101154.69
2023-01-31T02:45:31.888Z,101159.78
2023-01-31T02:48:43.382Z,101160.16
2023-01-31T02:52:10.042Z,101166.41
2023-01-31T02:55:37.869Z,101161.50
2023-01-31T02:58:41.928Z,101155.84
2023-01-31T03:01:47.594Z,101165.88
2023-01-31T03:04:49.581Z,101164.94
2023-01-31T03:07:55.359Z,101171.56
2023-01-31T03:11:02.415Z,101156.31
2023-01-31T03:14:16.225Z,101164.88
2023-01-31T03:17:33.798Z,101159.63
2023-01-31T03:20:44.722Z,101165.19
2023-01-31T03:23:52.615Z,101157.09
2023-01-31T03:26:58.160Z,101165.53
2023-01-31T03:30:09.607Z,101162.56
2023-01-31T03:33:15.968Z,101166.88
2023-01-31T03:36:29.103Z,101178.13
2023-01-31T03:39:38.608Z,101183.25
2023-01-31T03:42:45.513Z,101184.06
2023-01-31T03:45:51.806Z,101190.56
2023-01-31T03:48:56.734Z,101177.84
2023-01-31T03:52:05.131Z,101192.72
2023-01-31T03:55:12.656Z,101201.25
2023-01-31T03:58:18.991Z,101209.09
2023-01-31T04:01:26.706Z,101206.25
2023-01-31T04:04:32.424Z,101216.28
2023-01-31T04:07:37.229Z,101213.94
2023-01-31T04:10:38.575Z,101214.84
2023-01-31T04:13:42.670Z,101217.50
2023-01-31T04:16:45.796Z,101208.66
2023-01-31T04:19:47.053Z,101213.75
2023-01-31T04:22:51.159Z,101209.16
2023-01-31T04:25:52.646Z,101206.97
2023-01-31T04:28:55.205Z,101208.81
2023-01-31T04:31:56.582Z,101205.50
2023-01-31T04:35:02.243Z,101214.22
2023-01-31T04:38:04.457Z,101225.50
2023-01-31T04:41:05.821Z,101236.59
2023-01-31T04:44:07.203Z,101237.63
2023-01-31T04:47:09.025Z,101238.13
2023-01-31T04:50:10.875Z,101228.34
2023-01-31T04:53:12.920Z,101242.19
2023-01-31T04:56:14.224Z,101249.38
2023-01-31T04:59:16.845Z,101246.38
2023-01-31T05:02:18.387Z,101247.63
2023-01-31T05:05:21.943Z,101238.75
2023-01-31T05:08:25.310Z,101238.25
2023-01-31T05:11:26.757Z,101235.75
2023-01-31T05:14:29.309Z,101243.16
2023-01-31T05:17:32.563Z,101243.59
2023-01-31T05:20:38.945Z,101242.34
2023-01-31T05:23:42.189Z,101244.97
2023-01-31T05:26:43.679Z,101247.00
2023-01-31T05:29:46.647Z,101253.38
2023-01-31T05:32:49.096Z,101257.63
2023-01-31T05:35:51.740Z,101253.28
2023-01-31T05:38:53.788Z,101258.78
2023-01-31T05:41:55.379Z,101259.88
2023-01-31T05:44:57.953Z,101261.06
2023-01-31T05:48:01.228Z,101250.41
2023-01-31T05:51:03.236Z,101250.59
2023-01-31T05:54:07.003Z,101253.81
2023-01-31T05:57:08.360Z,101257.66
2023-01-31T06:00:11.111Z,101259.94
2023-01-31T06:03:14.244Z,101266.00
2023-01-31T06:06:16.248Z,101261.44
2023-01-31T06:09:19.640Z,101265.94
2023-01-31T06:12:20.937Z,101276.84
2023-01-31T06:18:44.718Z,101273.44
2023-01-31T06:21:46.034Z,101283.31
2023-01-31T06:24:49.489Z,101286.44
2023-01-31T06:27:50.807Z,101284.78
2023-01-31T06:30:53.397Z,101295.44
2023-01-31T06:33:56.233Z,101294.69
2023-01-31T06:36:58.860Z,101296.63
2023-01-31T06:43:21.774Z,101295.91
2023-01-31T06:46:24.791Z,101291.75
2023-01-31T06:49:27.472Z,101290.25
2023-01-31T06:52:28.801Z,101292.38
2023-01-31T06:55:32.014Z,101298.22
2023-01-31T06:58:33.351Z,101295.50
2023-01-31T07:01:36.077Z,101307.69
2023-01-31T07:07:58.365Z,101292.03
2023-01-31T07:11:01.120Z,101282.00
2023-01-31T07:14:04.149Z,101276.56
2023-01-31T07:17:07.034Z,101296.41
2023-01-31T07:20:09.946Z,101290.97
2023-01-31T07:23:11.356Z,101289.72
2023-01-31T07:26:13.687Z,101287.69
2023-01-31T07:29:16.430Z,101293.50
2023-01-31T07:32:19.418Z,101295.16
2023-01-31T07:35:22.872Z,101285.19
2023-01-31T07:38:26.112Z,101290.03
2023-01-31T07:41:30.006Z,101288.75
2023-01-31T07:44:32.028Z,101285.00
2023-01-31T07:47:35.292Z,101277.69
2023-01-31T07:50:36.891Z,101281.97
2023-01-31T07:53:41.410Z,101282.56
2023-01-31T08:00:28.530Z,101273.97
2023-01-31T08:03:35.313Z,101267.91
2023-01-31T08:06:40.099Z,101280.72
2023-01-31T08:09:42.811Z,101275.50
2023-01-31T08:12:47.957Z,101272.38
2023-01-31T08:15:51.303Z,101271.97
2023-01-31T08:18:53.271Z,101268.59
2023-01-31T08:21:55.963Z,101259.84
2023-01-31T08:24:57.367Z,101260.69
2023-01-31T08:28:01.221Z,101259.69
2023-01-31T08:31:09.005Z,101253.59
2023-01-31T08:34:12.348Z,101246.91
2023-01-31T08:37:16.724Z,101250.91
2023-01-31T08:40:19.018Z,101247.34
2023-01-31T08:43:22.337Z,101253.41
2023-01-31T08:46:29.222Z,101245.28
2023-01-31T08:49:33.148Z,101251.31
2023-01-31T08:52:36.256Z,101251.34
2023-01-31T08:55:37.654Z,101249.03
2023-01-31T08:58:41.929Z,101250.72
2023-01-31T09:01:45.884Z,101245.72
2023-01-31T09:04:47.341Z,101236.50
2023-01-31T09:07:50.129Z,101242.56
2023-01-31T09:10:53.135Z,101229.41
2023-01-31T09:13:56.840Z,101229.19
2023-01-31T09:16:58.348Z,101226.47
2023-01-31T09:23:22.883Z,101214.56
2023-01-31T09:26:24.484Z,101216.84
2023-01-31T09:29:29.804Z,101210.19
2023-01-31T09:32:32.045Z,101204.75
2023-01-31T09:35:33.458Z,101202.84
2023-01-31T09:38:35.480Z,101199.09
2023-01-31T09:41:41.605Z,101200.97
2023-01-31T09:44:47.021Z,101207.25
2023-01-31T09:47:52.017Z,101197.00
2023-01-31T09:50:55.402Z,101197.41
2023-01-31T09:53:56.915Z,101192.16
2023-01-31T10:00:46.227Z,101182.34
2023-01-31T10:03:56.008Z,101166.19
2023-01-31T10:07:03.265Z,101173.34
2023-01-31T10:10:16.575Z,101158.47
2023-01-31T10:13:23.141Z,101162.03
2023-01-31T10:16:31.907Z,101152.00
2023-01-31T10:19:39.843Z,101144.66
2023-01-31T10:22:47.735Z,101149.69
2023-01-31T10:25:56.704Z,101133.75
2023-01-31T10:29:04.140Z,101135.47
2023-01-31T10:32:16.313Z,101128.75
2023-01-31T10:35:23.203Z,101109.28
2023-01-31T10:38:31.413Z,101113.47
2023-01-31T10:41:45.940Z,101109.22
2023-01-31T10:44:53.171Z,101103.16
2023-01-31T10:48:02.272Z,101080.53
2023-01-31T10:51:13.625Z,101099.59
2023-01-31T10:54:34.270Z,101085.56
2023-01-31T10:57:35.765Z,101080.69
2023-01-31T11:00:37.207Z,101066.81
2023-01-31T11:03:42.056Z,101060.59
2023-01-31T11:06:43.392Z,101055.16
2023-01-31T11:09:54.077Z,101053.41
2023-01-31T11:12:57.151Z,101045.94
2023-01-31T11:15:59.942Z,101037.75
2023-01-31T11:19:11.241Z,101039.44
2023-01-31T11:22:23.467Z,101027.94
2023-01-31T11:25:27.834Z,101016.53
2023-01-31T11:28:35.322Z,101016.06
2023-01-31T11:31:42.658Z,100999.81
2023-01-31T11:34:57.430Z,101001.94
2023-01-31T11:38:00.747Z,100991.91
2023-01-31T11:41:23.509Z,100988.91
2023-01-31T11:44:24.779Z,100971.28
2023-01-31T11:47:35.107Z,100975.06
2023-01-31T11:50:40.018Z,100963.00
2023-01-31T11:53:47.952Z,100961.16
2023-01-31T11:56:49.705Z,100943.84
2023-01-31T11:59:54.951Z,100934.75
2023-01-31T12:03:02.330Z,100924.25
2023-01-31T12:06:07.648Z,100913.00
2023-01-31T12:09:20.262Z,100900.78
2023-01-31T12:12:26.623Z,100889.56
2023-01-31T12:15:29.425Z,100889.94
2023-01-31T12:18:53.525Z,100882.34
2023-01-31T12:22:06.497Z,100880.44
2023-01-31T12:25:15.589Z,100876.44
2023-01-31T12:28:28.507Z,100864.50
2023-01-31T12:31:53.447Z,100855.34
2023-01-31T12:35:24.234Z,100850.13
2023-01-31T12:38:44.661Z,100841.81
2023-01-31T12:41:59.896Z,100844.75
2023-01-31T12:45:19.184Z,100839.50
2023-01-31T12:48:44.521Z,100833.22
2023-01-31T12:51:58.609Z,100832.84
2023-01-31T12:55:16.233Z,100822.78
2023-01-31T12:58:35.985Z,100821.00
2023-01-31T13:01:45.381Z,100810.91
2023-01-31T13:04:52.812Z,100796.56
2023-01-31T13:07:57.927Z,100800.63
2023-01-31T13:11:05.852Z,100787.94
2023-01-31T13:14:13.571Z,100790.81
2023-01-31T13:20:48.449Z,100795.88
2023-01-31T13:23:56.615Z,100782.97
2023-01-31T13:27:03.225Z,100777.91
2023-01-31T13:30:17.074Z,100782.38
2023-01-31T13:33:28.135Z,100779.31
2023-01-31T13:36:36.613Z,100769.53
2023-01-31T13:39:41.611Z,100774.75
2023-01-31T13:42:44.808Z,100777.31
2023-01-31T13:45:53.133Z,100774.81
2023-01-31T13:48:59.004Z,100770.72
2023-01-31T13:52:05.599Z,100786.34
2023-01-31T13:55:14.825Z,100779.78
2023-01-31T13:58:21.313Z,100780.72
2023-01-31T14:01:25.524Z,100762.34
2023-01-31T14:04:32.510Z,100771.16
2023-01-31T14:07:35.150Z,100767.53
2023-01-31T14:10:41.673Z,100770.03
2023-01-31T14:13:46.327Z,100763.25
2023-01-31T14:16:51.740Z,100756.16
2023-01-31T14:20:07.526Z,100746.78
2023-01-31T14:23:31.075Z,100749.28
2023-01-31T14:26:36.924Z,100742.56
2023-01-31T14:29:43.878Z,100739.84
2023-01-31T14:32:48.903Z,100724.22
2023-01-31T14:36:05.145Z,100730.50
2023-01-31T14:39:50.185Z,100732.41
2023-01-31T14:43:21.975Z,100740.34
2023-01-31T14:46:50.948Z,100738.25
2023-01-31T14:50:18.492Z,100733.44
2023-01-31T14:53:41.187Z,100721.53
2023-01-31T14:57:11.401Z,100713.59
2023-01-31T15:00:21.460Z,100715.09
2023-01-31T15:03:27.277Z,100718.16
2023-01-31T15:06:34.040Z,100713.59
2023-01-31T15:09:38.301Z,100710.19
2023-01-31T15:16:23.301Z,100712.66
2023-01-31T15:19:29.072Z,100699.44
2023-01-31T15:22:33.673Z,100706.97
2023-01-31T15:25:40.528Z,100693.47
2023-01-31T15:28:45.537Z,100690.31
2023-01-31T15:31:51.158Z,100693.16
2023-01-31T15:34:58.769Z,100692.09
2023-01-31T15:38:05.751Z,100693.03
2023-01-31T15:41:19.502Z,100696.66
2023-01-31T15:47:56.073Z,100687.16
2023-01-31T15:50:59.358Z,100676.28
2023-01-31T15:54:01.983Z,100665.72
2023-01-31T15:57:05.509Z,100670.44
2023-01-31T16:00:08.553Z,100683.81
2023-01-31T16:03:19.726Z,100674.34
2023-01-31T16:06:25.644Z,100658.97
2023-01-31T16:09:30.073Z,100684.16
2023-01-31T16:12:32.748Z,100687.50
2023-01-31T16:15:35.633Z,100689.66
2023-01-31T16:18:38.156Z,100682.13
2023-01-31T16:21:43.325Z,100690.84
2023-01-31T16:25:47.298Z,100700.00
2023-01-31T16:28:53.947Z,100692.38
2023-01-31T16:31:57.066Z,100696.81
2023-01-31T16:35:00.856Z,100701.50
2023-01-31T16:38:07.037Z,100691.13
2023-01-31T16:41:13.357Z,100690.84
2023-01-31T16:44:18.632Z,100679.34
2023-01-31T16:47:33.826Z,100687.00
2023-01-31T16:50:43.216Z,100672.56
2023-01-31T16:53:46.979Z,100663.03
2023-01-31T16:57:06.166Z,100651.81
2023-01-31T17:04:15.362Z,100659.09
2023-01-31T17:07:20.399Z,100664.03
2023-01-31T17:10:26.360Z,100670.88
2023-01-31T17:13:28.872Z,100661.81
2023-01-31T17:16:30.128Z,100655.91
2023-01-31T17:19:31.479Z,100650.47
2023-01-31T17:22:32.837Z,100647.63
2023-01-31T17:25:36.052Z,100647.69
2023-01-31T17:28:37.387Z,100642.69
2023-01-31T17:31:41.203Z,100621.59
2023-01-31T17:34:46.231Z,100622.72
2023-01-31T17:37:47.579Z,100612.34
2023-01-31T17:40:49.686Z,100609.28
2023-01-31T17:43:51.020Z,100607.66
2023-01-31T17:46:53.599Z,100609.03
2023-01-31T17:49:56.493Z,100603.19
2023-01-31T17:52:57.992Z,100581.28
2023-01-31T17:56:00.067Z,100585.56
2023-01-31T17:59:02.639Z,100578.13
2023-01-31T18:02:04.375Z,100560.56
2023-01-31T18:05:06.179Z,100559.50
2023-01-31T18:08:07.585Z,100557.97
2023-01-31T18:11:11.563Z,100570.28
2023-01-31T18:14:13.738Z,100571.56
2023-01-31T18:17:16.704Z,100578.38
2023-01-31T18:20:18.624Z,100568.44
2023-01-31T18:23:20.084Z,100581.56
2023-01-31T18:26:23.559Z,100559.06
2023-01-31T18:29:25.604Z,100543.34
2023-01-31T18:32:28.243Z,100529.63
2023-01-31T18:35:30.905Z,100531.97
2023-01-31T18:38:33.821Z,100535.31
2023-01-31T18:41:36.092Z,100535.06
2023-01-31T18:47:58.281Z,100522.66
2023-01-31T18:51:01.921Z,100531.63
2023-01-31T18:54:03.671Z,100528.56
2023-01-31T18:57:07.000Z,100527.72
2023-01-31T19:00:09.511Z,100543.47
2023-01-31T19:03:13.872Z,100539.25
2023-01-31T19:06:20.029Z,100545.25
2023-01-31T19:09:24.493Z,100548.63
2023-01-31T19:12:28.284Z,100602.66
2023-01-31T19:15:29.775Z,100594.94
2023-01-31T19:18:32.384Z,100600.41
2023-01-31T19:21:36.192Z,100604.22
2023-01-31T19:24:37.722Z,100586.53
2023-01-31T19:27:41.550Z,100597.28
2023-01-31T19:30:42.887Z,100578.59
2023-01-31T19:33:48.685Z,100582.22
2023-01-31T19:36:51.629Z,100582.38
2023-01-31T19:39:53.082Z,100563.81
2023-01-31T19:42:57.939Z,100567.75
2023-01-31T19:45:59.239Z,100578.69
2023-01-31T19:49:02.443Z,100579.16
2023-01-31T19:52:03.999Z,100583.47
2023-01-31T19:55:07.407Z,100592.53
2023-01-31T19:58:10.625Z,100600.81
2023-01-31T20:01:16.469Z,100607.03
2023-01-31T20:04:18.145Z,100612.28
2023-01-31T20:07:19.708Z,100616.44
2023-01-31T20:10:21.318Z,100625.63
2023-01-31T20:13:24.869Z,100613.34
2023-01-31T20:16:26.748Z,100617.25
2023-01-31T20:19:28.930Z,100621.97
2023-01-31T20:22:30.377Z,100622.78
2023-01-31T20:25:32.609Z,100625.81
2023-01-31T20:28:45.341Z,100637.44
2023-01-31T20:31:47.760Z,100635.25
2023-01-31T20:38:12.344Z,100650.13
2023-01-31T20:41:14.273Z,100642.53
2023-01-31T20:44:16.360Z,100654.75
2023-01-31T20:47:17.762Z,100653.06
2023-01-31T20:50:19.234Z,100668.00
2023-01-31T20:53:21.133Z,100666.72
2023-01-31T20:56:23.872Z,100664.22
2023-01-31T20:59:27.221Z,100667.31
2023-01-31T21:02:28.556Z,100671.97
2023-01-31T21:05:31.893Z,100672.34
2023-01-31T21:08:35.857Z,100675.69
2023-01-31T21:11:37.205Z,100682.44
2023-01-31T21:18:00.156Z,100693.63
2023-01-31T21:21:07.339Z,100686.47
2023-01-31T21:24:08.894Z,100686.72
2023-01-31T21:27:11.571Z,100686.38
2023-01-31T21:30:16.053Z,100702.91
2023-01-31T21:33:17.340Z,100751.91
2023-01-31T21:36:22.143Z,100757.81
2023-01-31T21:39:23.893Z,100707.91
2023-01-31T21:42:26.435Z,100704.53
2023-01-31T21:45:41.491Z,100701.50
2023-01-31T21:48:42.809Z,100728.25
2023-01-31T21:51:45.613Z,100719.94
2023-01-31T21:54:46.928Z,100727.25
2023-01-31T21:57:49.479Z,100725.59
2023-01-31T22:00:52.656Z,100720.81
2023-01-31T22:03:54.939Z,100707.47
2023-01-31T22:06:57.484Z,100698.72
2023-01-31T22:09:59.094Z,100695.81
2023-01-31T22:13:01.646Z,100691.63
2023-01-31T22:16:07.862Z,100700.81
2023-01-31T22:19:09.958Z,100703.09
2023-01-31T22:22:12.467Z,100698.91
2023-01-31T22:25:14.114Z,100703.31
2023-01-31T22:28:16.638Z,100707.28
2023-01-31T22:31:20.475Z,100698.28
2023-01-31T22:34:21.964Z,100692.47
2023-01-31T22:37:24.570Z,100691.44
2023-01-31T22:40:26.180Z,100694.34
2023-01-31T22:43:30.462Z,100694.13
2023-01-31T22:46:33.732Z,100694.06
2023-01-31T22:49:35.092Z,100684.25
2023-01-31T22:52:37.686Z,100693.84
2023-01-31T22:55:39.976Z,100699.50
2023-01-31T22:58:42.738Z,100695.72
2023-01-31T23:01:45.983Z,100710.53
2023-01-31T23:04:47.239Z,100716.13
2023-01-31T23:07:49.836Z,100715.09
2023-01-31T23:10:52.508Z,100709.69
2023-01-31T23:13:55.239Z,100721.34
2023-01-31T23:17:15.458Z,100704.41
2023-01-31T23:20:20.477Z,100692.50
2023-01-31T23:23:21.970Z,100700.41
2023-01-31T23:26:24.825Z,100685.50
2023-01-31T23:29:27.485Z,100697.47
2023-01-31T23:32:29.420Z,100703.28
2023-01-31T23:35:31.975Z,100690.72
2023-01-31T23:38:34.539Z,100693.97
2023-01-31T23:41:35.855Z,100696.97
2023-01-31T23:44:38.390Z,100684.16
2023-01-31T23:47:43.763Z,100700.97
2023-01-31T23:50:45.094Z,100704.47
2023-01-31T23:53:47.717Z,100701.28
2023-01-31T23:56:49.185Z,100696.91
2023-01-31T23:59:51.755Z,100696.16
